sensor_id;sensor_type;location;lat;lon;timestamp;temperature;humidity
16384;DHT22;8301;51.440;6.610;2022-10-26T00:02:01;11.00;99.90
16384;DHT22;8301;51.440;6.610;2022-10-26T00:04:28;11.00;99.90
16384;DHT22;8301;51.440;6.610;2022-10-26T00:06:55;11.00;99.90
16384;DHT22;8301;51.440;6.610;2022-10-26T00:09:22;11.10;99.90
16384;DHT22;8301;51.440;6.610;2022-10-26T00:11:48;11.10;99.90
16384;DHT22;8301;51.440;6.610;2022-10-26T00:14:15;11.10;99.90
16384;DHT22;8301;51.440;6.610;2022-10-26T00:16:42;11.20;99.90
16384;DHT22;8301;51.440;6.610;2022-10-26T00:19:09;11.20;99.90
16384;DHT22;8301;51.440;6.610;2022-10-26T00:21:36;11.30;99.90
16384;DHT22;8301;51.440;6.610;2022-10-26T00:24:02;11.30;99.90
16384;DHT22;8301;51.440;6.610;2022-10-26T00:26:29;11.30;99.90
16384;DHT22;8301;51.440;6.610;2022-10-26T00:28:56;11.40;99.90
16384;DHT22;8301;51.440;6.610;2022-10-26T00:31:23;11.40;99.90
16384;DHT22;8301;51.440;6.610;2022-10-26T00:33:53;11.50;99.90
16384;DHT22;8301;51.440;6.610;2022-10-26T00:36:21;11.50;99.90
16384;DHT22;8301;51.440;6.610;2022-10-26T00:38:49;11.50;99.90
16384;DHT22;8301;51.440;6.610;2022-10-26T00:41:16;11.60;99.90
16384;DHT22;8301;51.440;6.610;2022-10-26T00:43:44;11.60;99.90
16384;DHT22;8301;51.440;6.610;2022-10-26T00:46:12;11.60;99.90
16384;DHT22;8301;51.440;6.610;2022-10-26T00:48:41;11.60;99.90
16384;DHT22;8301;51.440;6.610;2022-10-26T00:51:08;11.70;99.90
16384;DHT22;8301;51.440;6.610;2022-10-26T00:53:36;11.70;99.90
16384;DHT22;8301;51.440;6.610;2022-10-26T00:56:03;11.70;99.90
16384;DHT22;8301;51.440;6.610;2022-10-26T00:58:30;11.70;99.90
16384;DHT22;8301;51.440;6.610;2022-10-26T01:00:57;11.70;99.90
16384;DHT22;8301;51.440;6.610;2022-10-26T01:03:24;11.70;99.90
16384;DHT22;8301;51.440;6.610;2022-10-26T01:05:54;11.80;99.90
16384;DHT22;8301;51.440;6.610;2022-10-26T01:08:21;11.70;99.90
16384;DHT22;8301;51.440;6.610;2022-10-26T01:10:48;11.80;99.90
16384;DHT22;8301;51.440;6.610;2022-10-26T01:13:16;11.80;99.90
16384;DHT22;8301;51.440;6.610;2022-10-26T01:15:50;11.80;99.90
16384;DHT22;8301;51.440;6.610;2022-10-26T01:21:18;11.80;99.90
16384;DHT22;8301;51.440;6.610;2022-10-26T01:26:31;11.80;99.90
16384;DHT22;8301;51.440;6.610;2022-10-26T01:31:41;11.90;99.90
16384;DHT22;8301;51.440;6.610;2022-10-26T01:34:23;12.00;99.90
16384;DHT22;8301;51.440;6.610;2022-10-26T01:36:53;11.90;99.90
16384;DHT22;8301;51.440;6.610;2022-10-26T01:39:22;12.00;99.90
16384;DHT22;8301;51.440;6.610;2022-10-26T01:41:49;12.00;99.90
16384;DHT22;8301;51.440;6.610;2022-10-26T01:44:36;12.00;99.90
16384;DHT22;8301;51.440;6.610;2022-10-26T01:47:05;12.00;99.90
16384;DHT22;8301;51.440;6.610;2022-10-26T01:49:34;12.10;99.90
16384;DHT22;8301;51.440;6.610;2022-10-26T01:52:01;12.10;99.90
16384;DHT22;8301;51.440;6.610;2022-10-26T01:54:28;12.10;99.90
16384;DHT22;8301;51.440;6.610;2022-10-26T01:56:56;12.10;99.90
16384;DHT22;8301;51.440;6.610;2022-10-26T02:02:17;12.10;99.90
16384;DHT22;8301;51.440;6.610;2022-10-26T02:07:24;12.10;99.90
16384;DHT22;8301;51.440;6.610;2022-10-26T02:09:55;12.10;99.90
16384;DHT22;8301;51.440;6.610;2022-10-26T02:14:49;12.20;99.90
16384;DHT22;8301;51.440;6.610;2022-10-26T02:17:27;12.20;99.90
16384;DHT22;8301;51.440;6.610;2022-10-26T02:19:58;12.20;99.90
16384;DHT22;8301;51.440;6.610;2022-10-26T02:22:23;12.30;99.90
16384;DHT22;8301;51.440;6.610;2022-10-26T02:24:57;12.30;99.90
16384;DHT22;8301;51.440;6.610;2022-10-26T02:27:26;12.30;99.90
16384;DHT22;8301;51.440;6.610;2022-10-26T02:29:57;12.40;99.90
16384;DHT22;8301;51.440;6.610;2022-10-26T02:32:26;12.40;99.90
16384;DHT22;8301;51.440;6.610;2022-10-26T02:34:54;12.40;99.90
16384;DHT22;8301;51.440;6.610;2022-10-26T02:37:21;12.50;99.90
16384;DHT22;8301;51.440;6.610;2022-10-26T02:39:49;12.50;99.90
16384;DHT22;8301;51.440;6.610;2022-10-26T02:42:17;12.50;99.90
16384;DHT22;8301;51.440;6.610;2022-10-26T02:44:48;12.60;99.90
16384;DHT22;8301;51.440;6.610;2022-10-26T02:47:16;12.60;99.90
16384;DHT22;8301;51.440;6.610;2022-10-26T02:49:43;12.60;99.90
16384;DHT22;8301;51.440;6.610;2022-10-26T02:52:11;12.70;99.90
16384;DHT22;8301;51.440;6.610;2022-10-26T02:54:43;12.70;99.90
16384;DHT22;8301;51.440;6.610;2022-10-26T02:57:11;12.70;99.90
16384;DHT22;8301;51.440;6.610;2022-10-26T02:59:39;12.70;99.90
16384;DHT22;8301;51.440;6.610;2022-10-26T03:02:06;12.70;99.90
16384;DHT22;8301;51.440;6.610;2022-10-26T03:04:33;12.80;99.90
16384;DHT22;8301;51.440;6.610;2022-10-26T03:07:01;12.80;99.90
16384;DHT22;8301;51.440;6.610;2022-10-26T03:09:27;12.80;99.90
16384;DHT22;8301;51.440;6.610;2022-10-26T03:11:54;12.80;99.90
16384;DHT22;8301;51.440;6.610;2022-10-26T03:14:21;12.90;99.90
16384;DHT22;8301;51.440;6.610;2022-10-26T03:16:49;12.90;99.90
16384;DHT22;8301;51.440;6.610;2022-10-26T03:19:16;12.90;99.90
16384;DHT22;8301;51.440;6.610;2022-10-26T03:21:43;13.00;99.90
16384;DHT22;8301;51.440;6.610;2022-10-26T03:24:10;13.00;99.90
16384;DHT22;8301;51.440;6.610;2022-10-26T03:26:36;13.00;99.90
16384;DHT22;8301;51.440;6.610;2022-10-26T03:29:03;13.00;99.90
16384;DHT22;8301;51.440;6.610;2022-10-26T03:31:30;13.00;99.90
16384;DHT22;8301;51.440;6.610;2022-10-26T03:33:57;13.10;99.90
16384;DHT22;8301;51.440;6.610;2022-10-26T03:36:24;13.00;99.90
16384;DHT22;8301;51.440;6.610;2022-10-26T03:38:50;13.00;99.90
16384;DHT22;8301;51.440;6.610;2022-10-26T03:41:17;13.00;99.90
16384;DHT22;8301;51.440;6.610;2022-10-26T03:43:44;13.10;99.90
16384;DHT22;8301;51.440;6.610;2022-10-26T03:46:11;13.10;99.90
16384;DHT22;8301;51.440;6.610;2022-10-26T03:48:38;13.10;99.90
16384;DHT22;8301;51.440;6.610;2022-10-26T03:51:04;13.10;99.90
16384;DHT22;8301;51.440;6.610;2022-10-26T03:53:33;13.20;99.90
16384;DHT22;8301;51.440;6.610;2022-10-26T03:56:00;13.10;99.90
16384;DHT22;8301;51.440;6.610;2022-10-26T03:58:27;13.20;99.90
16384;DHT22;8301;51.440;6.610;2022-10-26T04:00:54;13.20;99.90
16384;DHT22;8301;51.440;6.610;2022-10-26T04:03:20;13.20;99.90
16384;DHT22;8301;51.440;6.610;2022-10-26T04:05:47;13.20;99.90
16384;DHT22;8301;51.440;6.610;2022-10-26T04:08:14;13.30;99.90
16384;DHT22;8301;51.440;6.610;2022-10-26T04:10:41;13.30;99.90
16384;DHT22;8301;51.440;6.610;2022-10-26T04:13:08;13.30;99.90
16384;DHT22;8301;51.440;6.610;2022-10-26T04:15:36;13.30;99.90
16384;DHT22;8301;51.440;6.610;2022-10-26T04:18:03;13.40;99.90
16384;DHT22;8301;51.440;6.610;2022-10-26T04:20:30;13.40;99.90
16384;DHT22;8301;51.440;6.610;2022-10-26T04:23:04;13.50;99.90
16384;DHT22;8301;51.440;6.610;2022-10-26T04:25:27;13.50;99.90
16384;DHT22;8301;51.440;6.610;2022-10-26T04:27:54;13.60;99.90
16384;DHT22;8301;51.440;6.610;2022-10-26T04:30:21;13.60;99.90
16384;DHT22;8301;51.440;6.610;2022-10-26T04:32:47;13.70;99.90
16384;DHT22;8301;51.440;6.610;2022-10-26T04:35:14;13.70;99.90
16384;DHT22;8301;51.440;6.610;2022-10-26T04:37:41;13.70;99.90
16384;DHT22;8301;51.440;6.610;2022-10-26T04:40:08;13.70;99.90
16384;DHT22;8301;51.440;6.610;2022-10-26T04:42:42;13.70;99.90
16384;DHT22;8301;51.440;6.610;2022-10-26T04:45:09;13.80;99.90
16384;DHT22;8301;51.440;6.610;2022-10-26T04:47:36;13.80;99.90
16384;DHT22;8301;51.440;6.610;2022-10-26T04:50:03;13.90;99.90
16384;DHT22;8301;51.440;6.610;2022-10-26T04:52:30;13.90;99.90
16384;DHT22;8301;51.440;6.610;2022-10-26T04:54:57;13.90;99.90
16384;DHT22;8301;51.440;6.610;2022-10-26T04:57:24;13.90;99.90
16384;DHT22;8301;51.440;6.610;2022-10-26T04:59:51;13.90;99.90
16384;DHT22;8301;51.440;6.610;2022-10-26T05:02:17;14.00;99.90
16384;DHT22;8301;51.440;6.610;2022-10-26T05:04:45;13.90;99.90
16384;DHT22;8301;51.440;6.610;2022-10-26T05:07:12;13.90;99.90
16384;DHT22;8301;51.440;6.610;2022-10-26T05:09:39;13.90;99.90
16384;DHT22;8301;51.440;6.610;2022-10-26T05:12:06;13.90;99.90
16384;DHT22;8301;51.440;6.610;2022-10-26T05:14:33;13.90;99.90
16384;DHT22;8301;51.440;6.610;2022-10-26T05:16:59;13.80;99.90
16384;DHT22;8301;51.440;6.610;2022-10-26T05:19:26;13.80;99.90
16384;DHT22;8301;51.440;6.610;2022-10-26T05:21:53;13.90;99.90
16384;DHT22;8301;51.440;6.610;2022-10-26T05:24:20;13.90;99.90
16384;DHT22;8301;51.440;6.610;2022-10-26T05:26:47;13.90;99.90
16384;DHT22;8301;51.440;6.610;2022-10-26T05:29:14;13.80;99.90
16384;DHT22;8301;51.440;6.610;2022-10-26T05:31:40;13.80;99.90
16384;DHT22;8301;51.440;6.610;2022-10-26T05:34:07;13.80;99.90
16384;DHT22;8301;51.440;6.610;2022-10-26T05:36:34;13.80;99.90
16384;DHT22;8301;51.440;6.610;2022-10-26T05:39:01;13.80;99.90
16384;DHT22;8301;51.440;6.610;2022-10-26T05:41:28;13.80;99.90
16384;DHT22;8301;51.440;6.610;2022-10-26T05:43:54;13.80;99.90
16384;DHT22;8301;51.440;6.610;2022-10-26T05:46:21;13.80;99.90
16384;DHT22;8301;51.440;6.610;2022-10-26T05:48:48;13.80;99.90
16384;DHT22;8301;51.440;6.610;2022-10-26T05:51:15;13.80;99.90
16384;DHT22;8301;51.440;6.610;2022-10-26T05:53:42;13.80;99.90
16384;DHT22;8301;51.440;6.610;2022-10-26T05:56:15;13.80;99.90
16384;DHT22;8301;51.440;6.610;2022-10-26T05:58:40;13.80;99.90
16384;DHT22;8301;51.440;6.610;2022-10-26T06:04:04;13.80;99.90
16384;DHT22;8301;51.440;6.610;2022-10-26T06:06:30;13.80;99.90
16384;DHT22;8301;51.440;6.610;2022-10-26T06:08:57;13.80;99.90
16384;DHT22;8301;51.440;6.610;2022-10-26T06:11:23;13.80;99.90
16384;DHT22;8301;51.440;6.610;2022-10-26T06:13:52;13.80;99.90
16384;DHT22;8301;51.440;6.610;2022-10-26T06:24:27;13.90;99.90
16384;DHT22;8301;51.440;6.610;2022-10-26T06:27:03;13.80;99.90
16384;DHT22;8301;51.440;6.610;2022-10-26T06:29:34;13.90;99.90
16384;DHT22;8301;51.440;6.610;2022-10-26T06:31:58;13.90;99.90
16384;DHT22;8301;51.440;6.610;2022-10-26T06:34:26;13.90;99.90
16384;DHT22;8301;51.440;6.610;2022-10-26T06:36:53;13.90;99.90
16384;DHT22;8301;51.440;6.610;2022-10-26T06:39:21;13.90;99.90
16384;DHT22;8301;51.440;6.610;2022-10-26T06:41:50;14.00;99.90
16384;DHT22;8301;51.440;6.610;2022-10-26T06:44:22;14.00;99.90
16384;DHT22;8301;51.440;6.610;2022-10-26T06:47:11;13.90;99.90
16384;DHT22;8301;51.440;6.610;2022-10-26T06:52:04;13.90;99.90
16384;DHT22;8301;51.440;6.610;2022-10-26T06:54:38;14.00;99.90
16384;DHT22;8301;51.440;6.610;2022-10-26T06:56:59;14.00;99.90
16384;DHT22;8301;51.440;6.610;2022-10-26T06:59:35;14.00;99.90
16384;DHT22;8301;51.440;6.610;2022-10-26T07:01:59;14.00;99.90
16384;DHT22;8301;51.440;6.610;2022-10-26T07:04:26;14.00;99.90
16384;DHT22;8301;51.440;6.610;2022-10-26T07:06:53;14.10;99.90
16384;DHT22;8301;51.440;6.610;2022-10-26T07:09:22;14.20;99.90
16384;DHT22;8301;51.440;6.610;2022-10-26T07:11:49;14.30;99.90
16384;DHT22;8301;51.440;6.610;2022-10-26T07:14:16;14.30;99.90
16384;DHT22;8301;51.440;6.610;2022-10-26T07:16:43;14.30;99.90
16384;DHT22;8301;51.440;6.610;2022-10-26T07:19:10;14.30;99.90
16384;DHT22;8301;51.440;6.610;2022-10-26T07:21:36;14.30;99.90
16384;DHT22;8301;51.440;6.610;2022-10-26T07:24:05;14.30;99.90
16384;DHT22;8301;51.440;6.610;2022-10-26T07:26:32;14.30;99.90
16384;DHT22;8301;51.440;6.610;2022-10-26T07:28:59;14.30;99.90
16384;DHT22;8301;51.440;6.610;2022-10-26T07:31:26;14.30;99.90
16384;DHT22;8301;51.440;6.610;2022-10-26T07:33:53;14.30;99.90
16384;DHT22;8301;51.440;6.610;2022-10-26T07:36:20;14.40;99.90
16384;DHT22;8301;51.440;6.610;2022-10-26T07:38:49;14.40;99.90
16384;DHT22;8301;51.440;6.610;2022-10-26T07:41:16;14.40;99.90
16384;DHT22;8301;51.440;6.610;2022-10-26T07:43:43;14.40;99.90
16384;DHT22;8301;51.440;6.610;2022-10-26T07:46:11;14.50;99.90
16384;DHT22;8301;51.440;6.610;2022-10-26T07:48:37;14.60;99.90
16384;DHT22;8301;51.440;6.610;2022-10-26T07:51:04;14.60;99.90
16384;DHT22;8301;51.440;6.610;2022-10-26T07:53:31;14.70;99.90
16384;DHT22;8301;51.440;6.610;2022-10-26T07:55:58;14.80;99.90
16384;DHT22;8301;51.440;6.610;2022-10-26T07:58:25;14.80;99.90
16384;DHT22;8301;51.440;6.610;2022-10-26T08:00:52;14.90;99.90
16384;DHT22;8301;51.440;6.610;2022-10-26T08:03:19;15.10;99.90
16384;DHT22;8301;51.440;6.610;2022-10-26T08:05:49;15.40;99.90
16384;DHT22;8301;51.440;6.610;2022-10-26T08:08:18;15.70;99.90
16384;DHT22;8301;51.440;6.610;2022-10-26T08:10:46;15.80;99.90
16384;DHT22;8301;51.440;6.610;2022-10-26T08:13:13;15.90;99.90
16384;DHT22;8301;51.440;6.610;2022-10-26T08:15:40;16.00;99.90
16384;DHT22;8301;51.440;6.610;2022-10-26T08:18:07;16.10;99.90
16384;DHT22;8301;51.440;6.610;2022-10-26T08:20:33;16.10;99.90
16384;DHT22;8301;51.440;6.610;2022-10-26T08:23:00;16.20;99.90
16384;DHT22;8301;51.440;6.610;2022-10-26T08:25:31;16.30;99.90
16384;DHT22;8301;51.440;6.610;2022-10-26T08:28:01;16.30;99.90
16384;DHT22;8301;51.440;6.610;2022-10-26T08:30:29;16.30;99.90
16384;DHT22;8301;51.440;6.610;2022-10-26T08:33:07;16.60;99.90
16384;DHT22;8301;51.440;6.610;2022-10-26T08:35:30;17.50;99.90
16384;DHT22;8301;51.440;6.610;2022-10-26T08:37:57;18.10;99.90
16384;DHT22;8301;51.440;6.610;2022-10-26T08:40:25;18.40;99.90
16384;DHT22;8301;51.440;6.610;2022-10-26T08:42:54;18.70;99.90
16384;DHT22;8301;51.440;6.610;2022-10-26T08:45:27;19.00;99.90
16384;DHT22;8301;51.440;6.610;2022-10-26T08:47:50;19.50;99.90
16384;DHT22;8301;51.440;6.610;2022-10-26T08:50:27;19.80;99.90
16384;DHT22;8301;51.440;6.610;2022-10-26T08:53:02;19.70;99.90
16384;DHT22;8301;51.440;6.610;2022-10-26T08:55:32;20.30;99.90
16384;DHT22;8301;51.440;6.610;2022-10-26T08:57:59;21.00;99.90
16384;DHT22;8301;51.440;6.610;2022-10-26T09:00:26;20.70;99.90
16384;DHT22;8301;51.440;6.610;2022-10-26T09:02:55;20.90;99.90
16384;DHT22;8301;51.440;6.610;2022-10-26T09:07:55;21.30;99.90
16384;DHT22;8301;51.440;6.610;2022-10-26T09:10:19;21.30;99.90
16384;DHT22;8301;51.440;6.610;2022-10-26T09:25:49;19.80;99.90
16384;DHT22;8301;51.440;6.610;2022-10-26T09:28:17;20.00;99.90
16384;DHT22;8301;51.440;6.610;2022-10-26T09:30:44;20.50;99.90
16384;DHT22;8301;51.440;6.610;2022-10-26T09:33:21;20.10;99.90
16384;DHT22;8301;51.440;6.610;2022-10-26T09:43:56;20.00;99.90
16384;DHT22;8301;51.440;6.610;2022-10-26T09:46:26;19.70;99.90
16384;DHT22;8301;51.440;6.610;2022-10-26T09:48:55;19.20;99.90
16384;DHT22;8301;51.440;6.610;2022-10-26T09:51:22;19.00;99.90
16384;DHT22;8301;51.440;6.610;2022-10-26T09:53:48;18.70;99.90
16384;DHT22;8301;51.440;6.610;2022-10-26T09:56:16;18.70;99.90
16384;DHT22;8301;51.440;6.610;2022-10-26T09:58:49;18.50;99.90
16384;DHT22;8301;51.440;6.610;2022-10-26T10:09:28;18.80;99.90
16384;DHT22;8301;51.440;6.610;2022-10-26T10:11:56;18.80;99.90
16384;DHT22;8301;51.440;6.610;2022-10-26T10:14:28;18.70;99.90
16384;DHT22;8301;51.440;6.610;2022-10-26T10:16:56;18.80;99.90
16384;DHT22;8301;51.440;6.610;2022-10-26T10:21:57;18.70;99.90
16384;DHT22;8301;51.440;6.610;2022-10-26T10:24:30;18.80;99.90
16384;DHT22;8301;51.440;6.610;2022-10-26T10:29:45;18.90;99.90
16384;DHT22;8301;51.440;6.610;2022-10-26T10:32:18;18.90;99.90
16384;DHT22;8301;51.440;6.610;2022-10-26T10:34:49;18.90;99.90
16384;DHT22;8301;51.440;6.610;2022-10-26T10:37:28;19.00;99.90
16384;DHT22;8301;51.440;6.610;2022-10-26T10:39:45;19.10;99.90
16384;DHT22;8301;51.440;6.610;2022-10-26T10:42:15;19.00;99.90
16384;DHT22;8301;51.440;6.610;2022-10-26T10:44:41;19.20;99.90
16384;DHT22;8301;51.440;6.610;2022-10-26T10:47:13;19.20;99.90
16384;DHT22;8301;51.440;6.610;2022-10-26T10:49:37;19.10;99.90
16384;DHT22;8301;51.440;6.610;2022-10-26T10:52:04;19.10;99.90
16384;DHT22;8301;51.440;6.610;2022-10-26T10:54:34;19.10;99.90
16384;DHT22;8301;51.440;6.610;2022-10-26T10:57:06;19.20;99.90
16384;DHT22;8301;51.440;6.610;2022-10-26T11:07:02;19.50;99.90
16384;DHT22;8301;51.440;6.610;2022-10-26T11:09:30;19.60;99.90
16384;DHT22;8301;51.440;6.610;2022-10-26T11:14:51;19.70;99.90
16384;DHT22;8301;51.440;6.610;2022-10-26T11:20:00;19.80;99.90
16384;DHT22;8301;51.440;6.610;2022-10-26T11:22:29;19.80;99.90
16384;DHT22;8301;51.440;6.610;2022-10-26T11:25:02;19.90;99.90
16384;DHT22;8301;51.440;6.610;2022-10-26T11:27:29;20.00;99.90
16384;DHT22;8301;51.440;6.610;2022-10-26T11:29:58;20.00;99.90
16384;DHT22;8301;51.440;6.610;2022-10-26T11:32:26;20.10;99.90
16384;DHT22;8301;51.440;6.610;2022-10-26T11:37:37;20.00;99.90
16384;DHT22;8301;51.440;6.610;2022-10-26T11:40:21;20.10;99.90
16384;DHT22;8301;51.440;6.610;2022-10-26T11:42:56;20.10;99.90
16384;DHT22;8301;51.440;6.610;2022-10-26T11:45:24;20.10;99.90
16384;DHT22;8301;51.440;6.610;2022-10-26T11:47:52;20.20;99.90
16384;DHT22;8301;51.440;6.610;2022-10-26T11:52:57;20.20;99.90
16384;DHT22;8301;51.440;6.610;2022-10-26T11:55:19;20.20;99.90
16384;DHT22;8301;51.440;6.610;2022-10-26T11:57:48;20.20;99.90
16384;DHT22;8301;51.440;6.610;2022-10-26T12:00:18;20.00;99.90
16384;DHT22;8301;51.440;6.610;2022-10-26T12:02:47;20.00;99.90
16384;DHT22;8301;51.440;6.610;2022-10-26T12:05:19;20.20;99.90
16384;DHT22;8301;51.440;6.610;2022-10-26T12:07:48;20.20;99.90
16384;DHT22;8301;51.440;6.610;2022-10-26T12:10:31;20.30;99.90
16384;DHT22;8301;51.440;6.610;2022-10-26T12:15:46;20.30;99.90
16384;DHT22;8301;51.440;6.610;2022-10-26T12:18:14;20.30;99.90
16384;DHT22;8301;51.440;6.610;2022-10-26T12:23:10;20.10;99.90
16384;DHT22;8301;51.440;6.610;2022-10-26T12:25:37;20.20;99.90
16384;DHT22;8301;51.440;6.610;2022-10-26T12:28:06;20.10;99.90
16384;DHT22;8301;51.440;6.610;2022-10-26T12:30:34;20.10;99.90
16384;DHT22;8301;51.440;6.610;2022-10-26T12:33:02;19.90;99.90
16384;DHT22;8301;51.440;6.610;2022-10-26T12:35:34;20.00;99.90
16384;DHT22;8301;51.440;6.610;2022-10-26T12:38:25;20.10;99.90
16384;DHT22;8301;51.440;6.610;2022-10-26T12:45:43;20.50;99.90
16384;DHT22;8301;51.440;6.610;2022-10-26T12:50:55;20.50;99.90
16384;DHT22;8301;51.440;6.610;2022-10-26T12:53:24;20.40;99.90
16384;DHT22;8301;51.440;6.610;2022-10-26T12:55:55;20.50;99.90
16384;DHT22;8301;51.440;6.610;2022-10-26T13:08:49;20.70;99.90
16384;DHT22;8301;51.440;6.610;2022-10-26T13:11:18;20.80;99.90
16384;DHT22;8301;51.440;6.610;2022-10-26T13:13:57;20.60;99.90
16384;DHT22;8301;51.440;6.610;2022-10-26T13:16:20;20.60;99.90
16384;DHT22;8301;51.440;6.610;2022-10-26T13:18:47;20.50;99.90
16384;DHT22;8301;51.440;6.610;2022-10-26T13:21:15;20.40;99.90
16384;DHT22;8301;51.440;6.610;2022-10-26T13:26:23;20.60;99.90
16384;DHT22;8301;51.440;6.610;2022-10-26T13:28:51;20.60;99.90
16384;DHT22;8301;51.440;6.610;2022-10-26T13:33:46;20.70;99.90
16384;DHT22;8301;51.440;6.610;2022-10-26T13:39:09;20.70;99.90
16384;DHT22;8301;51.440;6.610;2022-10-26T13:41:33;20.70;99.90
16384;DHT22;8301;51.440;6.610;2022-10-26T13:44:04;20.60;99.90
16384;DHT22;8301;51.440;6.610;2022-10-26T13:46:33;20.50;99.90
16384;DHT22;8301;51.440;6.610;2022-10-26T13:49:04;20.50;99.90
16384;DHT22;8301;51.440;6.610;2022-10-26T13:51:38;20.60;99.90
16384;DHT22;8301;51.440;6.610;2022-10-26T13:54:09;20.60;99.90
16384;DHT22;8301;51.440;6.610;2022-10-26T13:56:35;20.60;99.90
16384;DHT22;8301;51.440;6.610;2022-10-26T13:59:05;20.60;99.90
16384;DHT22;8301;51.440;6.610;2022-10-26T14:01:34;20.70;99.90
16384;DHT22;8301;51.440;6.610;2022-10-26T14:04:17;20.50;99.90
16384;DHT22;8301;51.440;6.610;2022-10-26T14:06:47;20.60;99.90
16384;DHT22;8301;51.440;6.610;2022-10-26T14:09:13;20.50;99.90
16384;DHT22;8301;51.440;6.610;2022-10-26T14:11:48;20.40;99.90
16384;DHT22;8301;51.440;6.610;2022-10-26T14:14:19;20.40;99.90
16384;DHT22;8301;51.440;6.610;2022-10-26T14:16:47;20.30;99.90
16384;DHT22;8301;51.440;6.610;2022-10-26T14:19:48;20.30;99.90
16384;DHT22;8301;51.440;6.610;2022-10-26T14:21:50;20.30;99.90
16384;DHT22;8301;51.440;6.610;2022-10-26T14:24:26;20.30;99.90
16384;DHT22;8301;51.440;6.610;2022-10-26T14:26:49;20.30;99.90
16384;DHT22;8301;51.440;6.610;2022-10-26T14:29:17;20.30;99.90
16384;DHT22;8301;51.440;6.610;2022-10-26T14:31:45;20.30;99.90
16384;DHT22;8301;51.440;6.610;2022-10-26T14:34:14;20.20;99.90
16384;DHT22;8301;51.440;6.610;2022-10-26T14:36:47;20.10;99.90
16384;DHT22;8301;51.440;6.610;2022-10-26T14:39:18;20.10;99.90
16384;DHT22;8301;51.440;6.610;2022-10-26T14:41:41;20.20;99.90
16384;DHT22;8301;51.440;6.610;2022-10-26T14:44:18;20.20;99.90
16384;DHT22;8301;51.440;6.610;2022-10-26T14:46:45;20.10;99.90
16384;DHT22;8301;51.440;6.610;2022-10-26T14:49:15;20.00;99.90
16384;DHT22;8301;51.440;6.610;2022-10-26T14:51:41;19.90;99.90
16384;DHT22;8301;51.440;6.610;2022-10-26T14:54:18;19.90;99.90
16384;DHT22;8301;51.440;6.610;2022-10-26T14:56:41;19.90;99.90
16384;DHT22;8301;51.440;6.610;2022-10-26T14:59:09;19.90;99.90
16384;DHT22;8301;51.440;6.610;2022-10-26T15:01:46;19.90;99.90
16384;DHT22;8301;51.440;6.610;2022-10-26T15:04:31;19.80;99.90
16384;DHT22;8301;51.440;6.610;2022-10-26T15:07:06;19.70;99.90
16384;DHT22;8301;51.440;6.610;2022-10-26T15:09:30;19.70;99.90
16384;DHT22;8301;51.440;6.610;2022-10-26T15:11:58;19.70;99.90
16384;DHT22;8301;51.440;6.610;2022-10-26T15:14:24;19.60;99.90
16384;DHT22;8301;51.440;6.610;2022-10-26T15:16:52;19.50;99.90
16384;DHT22;8301;51.440;6.610;2022-10-26T15:19:20;19.50;99.90
16384;DHT22;8301;51.440;6.610;2022-10-26T15:21:50;19.50;99.90
16384;DHT22;8301;51.440;6.610;2022-10-26T15:24:31;19.40;99.90
16384;DHT22;8301;51.440;6.610;2022-10-26T15:26:58;19.30;99.90
16384;DHT22;8301;51.440;6.610;2022-10-26T15:29:36;19.40;99.90
16384;DHT22;8301;51.440;6.610;2022-10-26T15:32:04;19.30;99.90
16384;DHT22;8301;51.440;6.610;2022-10-26T15:34:31;19.20;99.90
16384;DHT22;8301;51.440;6.610;2022-10-26T15:36:58;19.20;99.90
16384;DHT22;8301;51.440;6.610;2022-10-26T15:39:24;19.10;99.90
16384;DHT22;8301;51.440;6.610;2022-10-26T15:41:52;19.00;99.90
16384;DHT22;8301;51.440;6.610;2022-10-26T15:44:20;18.90;99.90
16384;DHT22;8301;51.440;6.610;2022-10-26T15:46:48;18.90;99.90
16384;DHT22;8301;51.440;6.610;2022-10-26T15:49:17;18.90;99.90
16384;DHT22;8301;51.440;6.610;2022-10-26T15:51:44;18.80;99.90
16384;DHT22;8301;51.440;6.610;2022-10-26T15:54:11;18.70;99.90
16384;DHT22;8301;51.440;6.610;2022-10-26T15:56:39;18.70;99.90
16384;DHT22;8301;51.440;6.610;2022-10-26T15:59:13;18.60;99.90
16384;DHT22;8301;51.440;6.610;2022-10-26T16:01:36;18.60;99.90
16384;DHT22;8301;51.440;6.610;2022-10-26T16:04:03;18.50;99.90
16384;DHT22;8301;51.440;6.610;2022-10-26T16:06:31;18.40;99.90
16384;DHT22;8301;51.440;6.610;2022-10-26T16:08:59;18.30;99.90
16384;DHT22;8301;51.440;6.610;2022-10-26T16:11:26;18.20;99.90
16384;DHT22;8301;51.440;6.610;2022-10-26T16:13:53;18.20;99.90
16384;DHT22;8301;51.440;6.610;2022-10-26T16:16:20;18.10;99.90
16384;DHT22;8301;51.440;6.610;2022-10-26T16:18:50;18.10;99.90
16384;DHT22;8301;51.440;6.610;2022-10-26T16:21:17;18.00;99.90
16384;DHT22;8301;51.440;6.610;2022-10-26T16:23:49;17.90;99.90
16384;DHT22;8301;51.440;6.610;2022-10-26T16:26:16;17.90;99.90
16384;DHT22;8301;51.440;6.610;2022-10-26T16:28:44;17.80;99.90
16384;DHT22;8301;51.440;6.610;2022-10-26T16:31:12;17.70;99.90
16384;DHT22;8301;51.440;6.610;2022-10-26T16:33:39;17.60;99.90
16384;DHT22;8301;51.440;6.610;2022-10-26T16:36:06;17.60;99.90
16384;DHT22;8301;51.440;6.610;2022-10-26T16:38:33;17.50;99.90
16384;DHT22;8301;51.440;6.610;2022-10-26T16:41:04;17.40;99.90
16384;DHT22;8301;51.440;6.610;2022-10-26T16:43:32;17.20;99.90
16384;DHT22;8301;51.440;6.610;2022-10-26T16:45:59;17.10;99.90
16384;DHT22;8301;51.440;6.610;2022-10-26T16:48:27;17.00;99.90
16384;DHT22;8301;51.440;6.610;2022-10-26T16:50:54;17.00;99.90
16384;DHT22;8301;51.440;6.610;2022-10-26T16:53:22;16.90;99.90
16384;DHT22;8301;51.440;6.610;2022-10-26T16:55:49;16.90;99.90
16384;DHT22;8301;51.440;6.610;2022-10-26T16:58:15;16.90;99.90
16384;DHT22;8301;51.440;6.610;2022-10-26T17:00:42;16.70;99.90
16384;DHT22;8301;51.440;6.610;2022-10-26T17:03:09;16.60;99.90
16384;DHT22;8301;51.440;6.610;2022-10-26T17:05:36;16.60;99.90
16384;DHT22;8301;51.440;6.610;2022-10-26T17:08:03;16.50;99.90
16384;DHT22;8301;51.440;6.610;2022-10-26T17:10:30;16.40;99.90
16384;DHT22;8301;51.440;6.610;2022-10-26T17:12:56;16.40;99.90
16384;DHT22;8301;51.440;6.610;2022-10-26T17:15:23;16.40;99.90
16384;DHT22;8301;51.440;6.610;2022-10-26T17:17:51;16.40;99.90
16384;DHT22;8301;51.440;6.610;2022-10-26T17:20:18;16.30;99.90
16384;DHT22;8301;51.440;6.610;2022-10-26T17:22:45;16.40;99.90
16384;DHT22;8301;51.440;6.610;2022-10-26T17:25:12;16.40;99.90
16384;DHT22;8301;51.440;6.610;2022-10-26T17:27:39;16.40;99.90
16384;DHT22;8301;51.440;6.610;2022-10-26T17:30:06;16.40;99.90
16384;DHT22;8301;51.440;6.610;2022-10-26T17:32:33;16.40;99.90
16384;DHT22;8301;51.440;6.610;2022-10-26T17:35:00;16.40;99.90
16384;DHT22;8301;51.440;6.610;2022-10-26T17:37:27;16.40;99.90
16384;DHT22;8301;51.440;6.610;2022-10-26T17:39:53;16.40;99.90
16384;DHT22;8301;51.440;6.610;2022-10-26T17:42:21;16.40;99.90
16384;DHT22;8301;51.440;6.610;2022-10-26T17:44:47;16.40;99.90
16384;DHT22;8301;51.440;6.610;2022-10-26T17:47:14;16.40;99.90
16384;DHT22;8301;51.440;6.610;2022-10-26T17:49:41;16.40;99.90